createdAt,value
2018-06-07T00:01:16.986Z,17.92
2018-06-07T00:03:46.197Z,17.93
2018-06-07T00:06:15.726Z,17.89
2018-06-07T00:08:44.956Z,17.85
2018-06-07T00:11:14.127Z,17.92
2018-06-07T00:13:43.385Z,17.90
2018-06-07T00:16:12.547Z,17.94
2018-06-07T00:18:41.760Z,18.07
2018-06-07T00:21:10.930Z,18.05
2018-06-07T00:23:40.106Z,18.05
2018-06-07T00:26:09.261Z,18.08
2018-06-07T00:28:38.552Z,18.07
2018-06-07T00:31:07.858Z,18.12
2018-06-07T00:33:37.050Z,18.17
2018-06-07T00:36:06.222Z,18.15
2018-06-07T00:38:35.519Z,18.18
2018-06-07T00:41:04.763Z,18.18
2018-06-07T00:43:34.002Z,18.18
2018-06-07T00:46:03.256Z,18.18
2018-06-07T00:48:32.496Z,18.14
2018-06-07T00:51:01.700Z,18.19
2018-06-07T00:53:30.897Z,18.15
2018-06-07T00:56:00.100Z,18.10
2018-06-07T00:58:29.309Z,18.11
2018-06-07T01:00:58.572Z,18.11
2018-06-07T01:03:27.731Z,18.06
2018-06-07T01:05:56.983Z,18.17
2018-06-07T01:08:26.306Z,18.13
2018-06-07T01:10:55.533Z,18.19
2018-06-07T01:13:24.755Z,18.22
2018-06-07T01:15:53.931Z,18.21
2018-06-07T01:18:23.138Z,18.23
2018-06-07T01:20:53.118Z,18.36
2018-06-07T01:23:22.303Z,18.25
2018-06-07T01:25:51.494Z,18.22
2018-06-07T01:28:20.754Z,18.23
2018-06-07T01:30:55.092Z,18.22
2018-06-07T01:33:38.673Z,18.21
2018-06-07T01:36:07.885Z,18.20
2018-06-07T01:38:48.201Z,18.20
2018-06-07T01:41:18.434Z,18.23
2018-06-07T01:43:47.598Z,18.22
2018-06-07T01:46:16.793Z,18.26
2018-06-07T01:48:46.047Z,18.25
2018-06-07T01:51:15.337Z,18.20
2018-06-07T01:53:44.526Z,18.23
2018-06-07T01:56:13.684Z,18.24
2018-06-07T01:58:42.943Z,18.29
2018-06-07T02:01:12.185Z,18.27
2018-06-07T02:03:41.429Z,18.28
2018-06-07T02:06:10.677Z,18.35
2018-06-07T02:08:39.894Z,18.31
2018-06-07T02:11:09.203Z,18.35
2018-06-07T02:13:38.529Z,18.32
2018-06-07T02:16:07.760Z,18.27
2018-06-07T02:18:37.001Z,18.26
2018-06-07T02:21:06.284Z,18.24
2018-06-07T02:23:35.486Z,18.21
2018-06-07T02:26:04.812Z,18.20
2018-06-07T02:28:34.015Z,18.21
2018-06-07T02:31:03.154Z,18.18
2018-06-07T02:33:32.422Z,18.19
2018-06-07T02:36:01.609Z,18.20
2018-06-07T02:38:30.787Z,18.23
2018-06-07T02:40:59.952Z,18.28
2018-06-07T02:43:29.129Z,18.25
2018-06-07T02:45:58.834Z,18.29
2018-06-07T02:48:28.102Z,18.26
2018-06-07T02:50:57.332Z,18.26
2018-06-07T02:53:26.511Z,18.25
2018-06-07T02:55:55.711Z,18.30
2018-06-07T02:58:24.918Z,18.32
2018-06-07T03:00:54.132Z,18.34
2018-06-07T03:03:23.354Z,18.35
2018-06-07T03:05:52.593Z,18.31
2018-06-07T03:08:21.775Z,18.30
2018-06-07T03:10:50.963Z,18.30
2018-06-07T03:13:20.116Z,18.33
2018-06-07T03:15:49.752Z,18.30
2018-06-07T03:18:18.922Z,18.33
2018-06-07T03:20:48.100Z,18.31
2018-06-07T03:23:17.339Z,18.33
2018-06-07T03:25:46.580Z,18.32
2018-06-07T03:28:15.838Z,18.31
2018-06-07T03:30:45.003Z,18.30
2018-06-07T03:33:14.229Z,18.31
2018-06-07T03:35:43.411Z,18.36
2018-06-07T03:38:12.594Z,18.35
2018-06-07T03:40:41.782Z,18.36
2018-06-07T03:43:10.942Z,18.35
2018-06-07T03:45:40.234Z,18.37
2018-06-07T03:48:09.462Z,18.38
2018-06-07T03:50:38.730Z,18.42
2018-06-07T03:53:08.149Z,18.43
2018-06-07T03:55:37.389Z,18.46
2018-06-07T03:58:06.680Z,18.42
2018-06-07T04:00:35.909Z,18.41
2018-06-07T04:03:05.215Z,18.43
2018-06-07T04:05:34.441Z,18.46
2018-06-07T04:08:03.730Z,18.46
2018-06-07T04:10:32.908Z,18.48
2018-06-07T04:13:02.072Z,18.48
2018-06-07T04:15:32.394Z,18.52
2018-06-07T04:18:01.586Z,18.57
2018-06-07T04:20:31.770Z,18.54
2018-06-07T04:23:00.996Z,18.56
2018-06-07T04:25:30.209Z,18.58
2018-06-07T04:27:59.387Z,18.60
2018-06-07T04:30:28.590Z,18.61
2018-06-07T04:32:57.802Z,18.65
2018-06-07T04:35:26.991Z,18.66
2018-06-07T04:37:56.165Z,18.69
2018-06-07T04:40:25.391Z,18.72
2018-06-07T04:42:54.634Z,18.74
2018-06-07T04:45:23.802Z,18.79
2018-06-07T04:47:53.041Z,18.87
2018-06-07T04:50:22.192Z,18.90
2018-06-07T04:52:52.274Z,18.88
2018-06-07T04:55:21.463Z,18.84
2018-06-07T04:57:50.758Z,18.79
2018-06-07T05:00:20.329Z,18.80
2018-06-07T05:02:49.533Z,18.81
2018-06-07T05:05:18.722Z,18.94
2018-06-07T05:07:48.098Z,18.94
2018-06-07T05:10:17.331Z,18.96
2018-06-07T05:12:48.114Z,19.00
2018-06-07T05:15:17.337Z,18.98
2018-06-07T05:17:46.598Z,19.01
2018-06-07T05:20:16.542Z,19.06
2018-06-07T05:22:45.739Z,19.09
2018-06-07T05:25:15.361Z,19.11
2018-06-07T05:27:44.570Z,19.14
2018-06-07T05:30:13.785Z,19.13
2018-06-07T05:32:43.040Z,19.24
2018-06-07T05:35:12.217Z,19.29
2018-06-07T05:37:41.439Z,19.27
2018-06-07T05:40:10.659Z,19.26
2018-06-07T05:42:39.886Z,19.34
2018-06-07T05:45:09.172Z,19.30
2018-06-07T05:47:38.376Z,19.37
2018-06-07T05:50:08.089Z,19.42
2018-06-07T05:52:37.309Z,19.43
2018-06-07T05:55:06.889Z,19.47
2018-06-07T05:57:36.100Z,19.39
2018-06-07T06:00:06.074Z,19.41
2018-06-07T06:02:35.300Z,19.48
2018-06-07T06:05:04.608Z,19.49
2018-06-07T06:07:33.779Z,19.55
2018-06-07T06:10:02.972Z,19.49
2018-06-07T06:12:32.155Z,19.51
2018-06-07T06:15:01.326Z,19.54
2018-06-07T06:17:30.507Z,19.72
2018-06-07T06:20:00.644Z,19.95
2018-06-07T06:22:29.877Z,19.85
2018-06-07T06:24:59.107Z,19.80
2018-06-07T06:27:28.288Z,19.75
2018-06-07T06:29:57.459Z,19.76
2018-06-07T06:32:26.673Z,19.74
2018-06-07T06:34:55.846Z,19.80
2018-06-07T06:37:35.162Z,19.73
2018-06-07T06:40:04.385Z,19.69
2018-06-07T06:42:33.771Z,19.82
2018-06-07T06:45:02.930Z,19.88
2018-06-07T06:47:32.082Z,19.76
2018-06-07T06:50:01.529Z,19.76
2018-06-07T06:52:30.687Z,19.84
2018-06-07T06:54:59.872Z,19.99
2018-06-07T06:57:29.136Z,19.95
2018-06-07T06:59:58.314Z,19.96
2018-06-07T07:02:27.566Z,19.88
2018-06-07T07:04:56.789Z,19.98
2018-06-07T07:07:25.976Z,19.97
2018-06-07T07:09:55.185Z,20.04
2018-06-07T07:12:24.390Z,20.17
2018-06-07T07:14:53.782Z,20.28
2018-06-07T07:17:23.006Z,20.23
2018-06-07T07:19:52.158Z,20.37
2018-06-07T07:22:21.347Z,20.64
2018-06-07T07:24:50.491Z,20.72
2018-06-07T07:27:19.642Z,20.66
2018-06-07T07:29:48.861Z,20.88
2018-06-07T07:32:18.235Z,21.14
2018-06-07T07:34:47.425Z,21.05
2018-06-07T07:37:16.565Z,21.25
2018-06-07T07:39:45.756Z,21.36
2018-06-07T07:42:14.938Z,21.29
2018-06-07T07:44:44.209Z,21.16
2018-06-07T07:47:13.395Z,20.95
2018-06-07T07:49:42.501Z,20.96
2018-06-07T07:52:11.627Z,20.86
2018-06-07T07:54:40.860Z,20.86
2018-06-07T07:57:10.026Z,20.99
2018-06-07T07:59:39.313Z,21.15
2018-06-07T08:02:08.488Z,21.54
2018-06-07T08:04:37.693Z,21.92
2018-06-07T08:07:07.213Z,21.83
2018-06-07T08:09:36.462Z,21.71
2018-06-07T08:12:05.717Z,21.82
2018-06-07T08:14:34.935Z,21.92
2018-06-07T08:17:04.226Z,21.78
2018-06-07T08:19:33.538Z,21.78
2018-06-07T08:22:02.730Z,22.33
2018-06-07T08:24:31.910Z,22.53
2018-06-07T08:27:01.101Z,22.64
2018-06-07T08:29:30.421Z,22.67
2018-06-07T08:31:59.610Z,22.92
2018-06-07T08:34:28.853Z,22.70
2018-06-07T08:36:58.094Z,22.75
2018-06-07T08:39:27.374Z,22.62
2018-06-07T08:41:56.548Z,22.93
2018-06-07T08:44:25.707Z,22.74
2018-06-07T08:46:54.892Z,22.62
2018-06-07T08:49:24.055Z,22.64
2018-06-07T08:51:53.211Z,22.68
2018-06-07T08:54:22.363Z,22.75
2018-06-07T08:56:51.536Z,22.59
2018-06-07T08:59:20.671Z,22.54
2018-06-07T09:01:49.859Z,22.74
2018-06-07T09:04:18.993Z,22.74
2018-06-07T09:06:48.162Z,22.37
2018-06-07T09:09:17.371Z,22.64
2018-06-07T09:11:46.574Z,22.91
2018-06-07T09:14:16.184Z,22.85
2018-06-07T09:16:45.417Z,22.89
2018-06-07T09:19:14.520Z,23.18
2018-06-07T09:21:43.708Z,23.30
2018-06-07T09:24:12.970Z,23.54
2018-06-07T09:26:42.204Z,23.68
2018-06-07T09:29:11.440Z,23.62
2018-06-07T09:31:40.573Z,23.54
2018-06-07T09:34:09.873Z,23.53
2018-06-07T09:36:40.050Z,23.98
2018-06-07T09:39:09.359Z,23.90
2018-06-07T09:41:38.506Z,23.53
2018-06-07T09:44:07.701Z,23.97
2018-06-07T09:46:38.070Z,23.75
2018-06-07T09:49:07.300Z,23.67
2018-06-07T09:51:36.423Z,23.57
2018-06-07T09:54:05.751Z,23.29
2018-06-07T09:56:34.911Z,23.11
2018-06-07T09:59:04.094Z,23.20
2018-06-07T10:01:33.256Z,23.14
2018-06-07T10:04:02.519Z,23.23
2018-06-07T10:06:31.753Z,23.57
2018-06-07T10:09:01.062Z,23.96
2018-06-07T10:11:30.378Z,24.27
2018-06-07T10:13:59.548Z,24.02
2018-06-07T10:16:28.707Z,23.83
2018-06-07T10:18:57.960Z,23.64
2018-06-07T10:21:27.145Z,23.92
2018-06-07T10:23:56.353Z,23.86
2018-06-07T10:26:25.515Z,24.15
2018-06-07T10:28:54.685Z,23.68
2018-06-07T10:31:23.890Z,23.77
2018-06-07T10:33:53.149Z,24.33
2018-06-07T10:36:22.460Z,24.64
2018-06-07T10:38:51.689Z,24.43
2018-06-07T10:41:20.834Z,25.09
2018-06-07T10:43:49.997Z,25.78
2018-06-07T10:46:20.855Z,25.84
2018-06-07T10:48:50.046Z,26.22
2018-06-07T10:51:19.299Z,26.12
2018-06-07T10:53:48.430Z,25.69
2018-06-07T10:56:17.554Z,25.68
2018-06-07T10:58:46.766Z,25.54
2018-06-07T11:01:15.873Z,25.21
2018-06-07T11:03:45.036Z,25.23
2018-06-07T11:06:14.789Z,25.26
2018-06-07T11:08:45.779Z,25.02
2018-06-07T11:11:14.993Z,25.11
2018-06-07T11:13:44.253Z,24.93
2018-06-07T11:16:13.494Z,24.61
2018-06-07T11:18:42.866Z,24.37
2018-06-07T11:21:12.158Z,24.14
2018-06-07T11:23:41.825Z,24.03
2018-06-07T11:26:10.986Z,24.22
2018-06-07T11:28:40.190Z,23.63
2018-06-07T11:31:09.604Z,23.48
2018-06-07T11:33:38.778Z,23.54
2018-06-07T11:36:07.980Z,23.21
2018-06-07T11:38:37.173Z,23.11
2018-06-07T11:41:06.583Z,23.17
2018-06-07T11:43:35.797Z,23.27
2018-06-07T11:46:05.193Z,23.30
2018-06-07T11:51:26.563Z,23.39
2018-06-07T11:53:55.717Z,23.64
2018-06-07T11:56:25.026Z,23.69
2018-06-07T11:58:54.187Z,23.73
2018-06-07T12:01:23.352Z,24.35
2018-06-07T12:03:52.558Z,24.97
2018-06-07T12:06:21.659Z,25.32
2018-06-07T12:08:50.814Z,24.76
2018-06-07T12:11:20.049Z,24.98
2018-06-07T12:13:49.245Z,24.76
2018-06-07T12:16:18.476Z,24.56
2018-06-07T12:18:48.830Z,24.48
2018-06-07T12:21:18.135Z,24.60
2018-06-07T12:23:47.418Z,24.62
2018-06-07T12:26:16.586Z,24.96
2018-06-07T12:28:45.814Z,24.78
2018-06-07T12:31:15.035Z,25.10
2018-06-07T12:33:44.248Z,25.02
2018-06-07T12:36:13.477Z,25.00
2018-06-07T12:38:42.761Z,25.25
2018-06-07T12:41:12.039Z,25.16
2018-06-07T12:43:41.305Z,25.04
2018-06-07T12:46:10.479Z,25.12
2018-06-07T12:48:39.720Z,25.65
2018-06-07T12:51:09.092Z,26.18
2018-06-07T12:53:38.632Z,26.12
2018-06-07T12:56:07.842Z,25.32
2018-06-07T12:58:37.055Z,25.36
2018-06-07T13:01:06.330Z,25.56
2018-06-07T13:03:35.586Z,25.12
2018-06-07T13:06:04.876Z,24.93
2018-06-07T13:08:34.066Z,24.65
2018-06-07T13:11:03.673Z,24.37
2018-06-07T13:13:32.803Z,24.50
2018-06-07T13:16:01.981Z,24.51
2018-06-07T13:18:31.162Z,24.43
2018-06-07T13:21:00.425Z,24.36
2018-06-07T13:23:29.646Z,24.10
2018-06-07T13:25:58.989Z,24.15
2018-06-07T13:28:28.189Z,24.21
2018-06-07T13:30:58.022Z,24.05
2018-06-07T13:33:27.220Z,23.93
2018-06-07T13:35:56.983Z,23.88
2018-06-07T13:38:26.191Z,23.77
2018-06-07T13:40:55.440Z,23.74
2018-06-07T13:43:24.602Z,23.62
2018-06-07T13:45:53.773Z,23.58
2018-06-07T13:48:22.950Z,23.61
2018-06-07T13:50:52.210Z,23.74
2018-06-07T13:53:21.422Z,23.82
2018-06-07T13:55:50.652Z,23.80
2018-06-07T13:58:19.843Z,23.83
2018-06-07T14:00:49.134Z,23.77
2018-06-07T14:03:18.269Z,23.87
2018-06-07T14:05:47.501Z,24.05
2018-06-07T14:08:16.645Z,24.04
2018-06-07T14:10:45.866Z,23.95
2018-06-07T14:13:15.015Z,24.04
2018-06-07T14:15:45.450Z,23.87
2018-06-07T14:18:14.621Z,23.80
2018-06-07T14:20:43.786Z,23.67
2018-06-07T14:23:13.030Z,23.72
2018-06-07T14:25:42.365Z,23.72
2018-06-07T14:28:11.663Z,23.75
2018-06-07T14:30:40.942Z,23.83
2018-06-07T14:33:10.261Z,23.68
2018-06-07T14:35:39.478Z,23.62
2018-06-07T14:38:08.770Z,23.62
2018-06-07T14:40:37.982Z,23.67
2018-06-07T14:43:07.516Z,23.68
2018-06-07T14:45:36.705Z,23.60
2018-06-07T14:48:05.978Z,23.39
2018-06-07T14:50:35.189Z,23.36
2018-06-07T14:53:04.393Z,23.16
2018-06-07T14:55:33.601Z,23.21
2018-06-07T14:58:02.780Z,23.41
2018-06-07T15:00:32.046Z,23.49
2018-06-07T15:03:01.187Z,23.49
2018-06-07T15:05:30.358Z,23.30
2018-06-07T15:07:59.582Z,23.13
2018-06-07T15:10:28.751Z,23.34
2018-06-07T15:12:57.882Z,23.31
2018-06-07T15:15:27.029Z,23.21
2018-06-07T15:17:56.165Z,23.28
2018-06-07T15:20:25.355Z,23.19
2018-06-07T15:22:54.517Z,23.29
2018-06-07T15:25:23.698Z,23.43
2018-06-07T15:27:52.904Z,23.42
2018-06-07T15:30:22.136Z,23.50
2018-06-07T15:32:51.341Z,23.58
2018-06-07T15:35:20.526Z,23.39
2018-06-07T15:37:49.702Z,23.35
2018-06-07T15:40:18.842Z,23.34
2018-06-07T15:42:48.031Z,23.44
2018-06-07T15:45:17.171Z,23.30
2018-06-07T15:47:46.311Z,23.22
2018-06-07T15:50:15.578Z,23.37
2018-06-07T15:52:44.860Z,23.34
2018-06-07T15:55:14.037Z,23.32
2018-06-07T15:57:43.241Z,23.41
2018-06-07T16:00:12.481Z,23.46
2018-06-07T16:02:41.666Z,23.53
2018-06-07T16:05:10.788Z,23.47
2018-06-07T16:07:39.978Z,23.49
2018-06-07T16:10:09.119Z,23.62
2018-06-07T16:12:39.840Z,23.59
2018-06-07T16:15:09.134Z,23.49
2018-06-07T16:17:38.258Z,23.39
2018-06-07T16:20:07.537Z,23.37
2018-06-07T16:22:36.751Z,23.49
2018-06-07T16:25:06.231Z,23.55
2018-06-07T16:27:35.475Z,23.55
2018-06-07T16:30:05.111Z,23.56
2018-06-07T16:32:34.303Z,23.48
2018-06-07T16:35:03.617Z,23.42
2018-06-07T16:37:32.808Z,23.45
2018-06-07T16:40:02.066Z,23.48
2018-06-07T16:42:31.282Z,23.40
2018-06-07T16:45:00.512Z,23.37
2018-06-07T16:47:29.721Z,23.24
2018-06-07T16:49:58.953Z,23.26
2018-06-07T16:52:28.116Z,23.22
2018-06-07T16:54:57.353Z,23.12
2018-06-07T16:57:26.554Z,23.01
2018-06-07T16:59:55.815Z,23.00
2018-06-07T17:02:25.077Z,22.93
2018-06-07T17:04:54.213Z,22.92
2018-06-07T17:07:23.450Z,22.89
2018-06-07T17:09:53.100Z,22.92
2018-06-07T17:12:22.411Z,22.91
2018-06-07T17:14:51.620Z,22.95
2018-06-07T17:17:20.797Z,22.96
2018-06-07T17:19:49.943Z,22.91
2018-06-07T17:22:19.096Z,22.87
2018-06-07T17:24:48.324Z,22.91
2018-06-07T17:27:17.464Z,22.83
2018-06-07T17:29:47.101Z,22.86
2018-06-07T17:32:16.291Z,22.81
2018-06-07T17:34:45.496Z,22.77
2018-06-07T17:37:14.674Z,22.77
2018-06-07T17:39:43.928Z,22.76
2018-06-07T17:42:13.073Z,22.68
2018-06-07T17:44:42.290Z,22.67
2018-06-07T17:47:11.682Z,22.63
2018-06-07T17:49:41.071Z,22.56
2018-06-07T17:52:10.255Z,22.54
2018-06-07T17:54:39.468Z,22.42
2018-06-07T17:57:08.731Z,22.42
2018-06-07T17:59:38.001Z,22.33
2018-06-07T18:02:07.314Z,22.34
2018-06-07T18:04:37.657Z,22.30
2018-06-07T18:07:07.029Z,22.30
2018-06-07T18:09:36.248Z,22.25
2018-06-07T18:12:05.767Z,22.23
2018-06-07T18:14:35.154Z,22.21
2018-06-07T18:17:04.459Z,22.15
2018-06-07T18:19:33.768Z,22.16
2018-06-07T18:22:02.881Z,22.09
2018-06-07T18:24:32.068Z,22.03
2018-06-07T18:27:01.385Z,22.02
2018-06-07T18:29:30.516Z,21.96
2018-06-07T18:31:59.784Z,21.93
2018-06-07T18:34:28.989Z,21.87
2018-06-07T18:36:58.165Z,21.81
2018-06-07T18:39:27.324Z,21.82
2018-06-07T18:41:56.589Z,21.79
2018-06-07T18:44:25.803Z,21.77
2018-06-07T18:46:54.979Z,21.75
2018-06-07T18:49:24.159Z,21.72
2018-06-07T18:51:53.362Z,21.69
2018-06-07T18:54:22.506Z,21.64
2018-06-07T18:56:51.662Z,21.65
2018-06-07T18:59:20.815Z,21.64
2018-06-07T19:01:50.017Z,21.59
2018-06-07T19:04:19.212Z,21.64
2018-06-07T19:06:48.445Z,21.58
2018-06-07T19:09:22.777Z,21.52
2018-06-07T19:11:51.970Z,21.47
2018-06-07T19:14:26.507Z,21.48
2018-06-07T19:16:55.725Z,21.46
2018-06-07T19:19:29.988Z,21.45
2018-06-07T19:21:59.259Z,21.43
2018-06-07T19:24:32.555Z,21.42
2018-06-07T19:27:07.681Z,21.41
2018-06-07T19:29:37.235Z,21.39
2018-06-07T19:32:11.732Z,21.44
2018-06-07T19:34:46.090Z,21.35
2018-06-07T19:37:15.343Z,21.38
2018-06-07T19:39:49.675Z,21.38
2018-06-07T19:42:18.808Z,21.37
2018-06-07T19:44:47.987Z,21.36
2018-06-07T19:47:17.210Z,21.34
2018-06-07T19:49:46.418Z,21.31
2018-06-07T19:52:15.609Z,21.28
2018-06-07T19:54:44.774Z,21.26
2018-06-07T19:57:14.124Z,21.26
2018-06-07T19:59:43.307Z,21.30
2018-06-07T20:02:12.467Z,21.30
2018-06-07T20:04:41.698Z,21.33
2018-06-07T20:07:10.935Z,21.27
2018-06-07T20:09:40.078Z,21.25
2018-06-07T20:12:09.259Z,21.19
2018-06-07T20:14:39.291Z,21.20
2018-06-07T20:17:08.925Z,21.18
2018-06-07T20:19:38.131Z,21.16
2018-06-07T20:22:07.346Z,21.19
2018-06-07T20:24:36.510Z,21.21
2018-06-07T20:27:06.006Z,21.14
2018-06-07T20:29:35.253Z,21.13
2018-06-07T20:32:04.485Z,21.10
2018-06-07T20:34:33.662Z,21.11
2018-06-07T20:37:02.812Z,21.10
2018-06-07T20:39:31.987Z,21.10
2018-06-07T20:42:01.139Z,21.11
2018-06-07T20:44:30.307Z,21.04
2018-06-07T20:46:59.496Z,21.05
2018-06-07T20:49:28.746Z,21.02
2018-06-07T20:51:57.893Z,20.93
2018-06-07T20:54:27.026Z,20.92
2018-06-07T20:56:56.183Z,20.95
2018-06-07T20:59:25.313Z,20.89
2018-06-07T21:01:54.486Z,20.91
2018-06-07T21:04:23.650Z,20.89
2018-06-07T21:06:52.813Z,20.94
2018-06-07T21:09:21.957Z,20.88
2018-06-07T21:11:51.173Z,20.84
2018-06-07T21:14:20.378Z,20.80
2018-06-07T21:16:49.571Z,20.78
2018-06-07T21:19:18.795Z,20.77
2018-06-07T21:21:48.031Z,20.77
2018-06-07T21:24:17.226Z,20.74
2018-06-07T21:26:46.409Z,20.70
2018-06-07T21:29:15.560Z,20.66
2018-06-07T21:31:44.725Z,20.64
2018-06-07T21:34:13.883Z,20.59
2018-06-07T21:36:43.073Z,20.53
2018-06-07T21:39:12.990Z,20.48
2018-06-07T21:41:42.162Z,20.44
2018-06-07T21:44:11.320Z,20.39
2018-06-07T21:46:40.567Z,20.35
2018-06-07T21:49:09.913Z,20.31
2018-06-07T21:51:39.106Z,20.31
2018-06-07T21:54:08.369Z,20.30
2018-06-07T21:56:37.468Z,20.30
2018-06-07T21:59:06.645Z,20.32
2018-06-07T22:01:35.795Z,20.28
2018-06-07T22:04:05.042Z,20.24
2018-06-07T22:06:34.218Z,20.21
2018-06-07T22:09:03.521Z,20.22
2018-06-07T22:11:32.674Z,20.22
2018-06-07T22:14:01.866Z,20.21
2018-06-07T22:16:31.080Z,20.19
2018-06-07T22:19:00.288Z,20.18
2018-06-07T22:21:29.438Z,20.17
2018-06-07T22:23:58.575Z,20.16
2018-06-07T22:26:27.795Z,20.15
2018-06-07T22:28:56.987Z,20.17
2018-06-07T22:31:26.138Z,20.16
2018-06-07T22:33:55.358Z,20.16
2018-06-07T22:36:24.643Z,20.17
2018-06-07T22:38:53.811Z,20.18
2018-06-07T22:41:22.993Z,20.16
2018-06-07T22:43:52.169Z,20.15
2018-06-07T22:46:21.545Z,20.13
2018-06-07T22:48:50.812Z,20.09
2018-06-07T22:51:19.993Z,20.05
2018-06-07T22:53:49.192Z,20.00
2018-06-07T22:56:18.442Z,19.94
2018-06-07T22:58:47.628Z,19.89
2018-06-07T23:01:16.804Z,19.81
2018-06-07T23:03:46.068Z,19.76
2018-06-07T23:06:15.225Z,19.73
2018-06-07T23:08:44.374Z,19.66
2018-06-07T23:11:13.566Z,19.60
2018-06-07T23:13:42.708Z,19.55
2018-06-07T23:16:11.850Z,19.52
2018-06-07T23:18:40.999Z,19.48
2018-06-07T23:21:10.201Z,19.36
2018-06-07T23:23:39.416Z,19.25
2018-06-07T23:26:09.584Z,19.21
2018-06-07T23:28:38.723Z,19.15
2018-06-07T23:31:08.117Z,19.14
2018-06-07T23:33:37.297Z,19.09
2018-06-07T23:36:06.522Z,19.01
2018-06-07T23:38:35.726Z,18.95
2018-06-07T23:41:04.886Z,18.92
2018-06-07T23:43:34.069Z,18.87
2018-06-07T23:46:03.229Z,18.84
2018-06-07T23:48:32.422Z,18.81
2018-06-07T23:51:01.634Z,18.78
2018-06-07T23:53:30.790Z,18.73
2018-06-07T23:55:59.978Z,18.67
2018-06-07T23:58:29.223Z,18.63
